KHLB/HLB METAR and TAF weather

Enter ICAO airport designator
Station Type Date Time Source
KHLB METAR 2019/09/20 09:35 UTC NOAA

KHLB 200935Z AUTO 00000KT 10SM BKN060 18/18 A3015 RMK A01


Station Type Date Time Source
KHLB Decoded METAR 2019/09/20 09:35 UTC NOAA

Station name not available
Sep 20, 2019 - 05:35 AM EDT / 2019.09.20 0935 UTC
Wind: Calm:0
Visibility: 10 mile(s):0
Sky conditions: mostly cloudy
Temperature: 64 F (18 C)
Dew Point: 64 F (18 C)
Relative Humidity: 100%
Pressure (altimeter): 30.15 in. Hg (1020 hPa)
ob: KHLB 200935Z AUTO 00000KT 10SM BKN060 18/18 A3015 RMK A01
cycle: 9

Station Type Date Time Source
KHLB TAF UTC NOAA

Error!

Example: see airport list